Time;durP1;ratioP1;P1;durP2;ratioP2;P2;SDS_P1;SDS_P2;PMS_P1;PMS_P2;Temp;Humidity;BMP_temperature;BMP_pressure;BME280_temperature;BME280_humidity;BME280_pressure;Samples;Min_cycle;Max_cycle;Signal;HPM_P1;HPM_P2
2021/05/15 00:01:52;;;;;;;3.93;2.40;;;;;;;;;;5119404;28;20627;-70
2021/05/15 00:04:18;;;;;;;2.27;1.80;;;;;;;;;;5119287;28;20255;-70
2021/05/15 00:06:45;;;;;;;3.07;2.03;;;;;;;;;;5119268;28;20770;-70
2021/05/15 00:09:12;;;;;;;2.63;1.90;;;;;;;;;;5119254;28;20345;-70
2021/05/15 00:11:38;;;;;;;2.23;2.03;;;;;;;;;;5118958;28;20246;-70
2021/05/15 00:14:05;;;;;;;3.80;1.90;;;;;;;;;;5118771;28;20629;-70
2021/05/15 00:16:31;;;;;;;4.20;1.80;;;;;;;;;;5119063;28;20225;-70
2021/05/15 00:18:57;;;;;;;3.23;1.57;;;;;;;;;;5118783;28;20288;-70
2021/05/15 00:21:23;;;;;;;2.97;1.90;;;;;;;;;;5118794;28;20209;-70
2021/05/15 00:23:51;;;;;;;1.90;1.70;;;;;;;;;;5118745;28;20201;-70
2021/05/15 00:26:18;;;;;;;1.97;1.53;;;;;;;;;;5118729;28;20219;-70
2021/05/15 00:28:44;;;;;;;3.33;1.60;;;;;;;;;;5118500;28;20234;-70
2021/05/15 00:31:10;;;;;;;5.07;1.33;;;;;;;;;;5118785;28;20284;-71
2021/05/15 00:33:37;;;;;;;3.00;1.30;;;;;;;;;;5119059;28;20209;-71
2021/05/15 00:36:04;;;;;;;1.73;1.20;;;;;;;;;;5108044;28;20230;-70
2021/05/15 00:38:30;;;;;;;1.33;1.23;;;;;;;;;;5098494;28;20208;-70
2021/05/15 00:40:58;;;;;;;2.00;1.30;;;;;;;;;;5098163;28;20213;-70
2021/05/15 00:43:26;;;;;;;2.50;1.20;;;;;;;;;;5097867;28;20227;-70
2021/05/15 00:45:53;;;;;;;3.33;1.20;;;;;;;;;;5103726;28;20236;-70
2021/05/15 00:48:19;;;;;;;2.63;1.63;;;;;;;;;;5100639;28;20205;-70
2021/05/15 00:50:45;;;;;;;1.37;1.27;;;;;;;;;;5098229;28;20202;-70
2021/05/15 00:53:11;;;;;;;3.33;1.03;;;;;;;;;;5098265;28;20237;-70
2021/05/15 00:55:38;;;;;;;1.30;1.07;;;;;;;;;;5098223;28;20586;-70
2021/05/15 00:58:05;;;;;;;0.97;0.87;;;;;;;;;;5097795;28;20205;-70
2021/05/15 01:00:31;;;;;;;1.97;1.07;;;;;;;;;;5110802;28;20205;-70
2021/05/15 01:02:58;;;;;;;0.90;0.80;;;;;;;;;;5118768;28;20207;-70
2021/05/15 01:05:25;;;;;;;1.53;1.07;;;;;;;;;;5118198;28;20223;-70
2021/05/15 01:07:51;;;;;;;1.97;0.80;;;;;;;;;;5118439;28;20205;-70
2021/05/15 01:10:17;;;;;;;1.83;1.10;;;;;;;;;;5118267;28;20201;-70
2021/05/15 01:12:44;;;;;;;2.53;1.10;;;;;;;;;;5117671;28;20205;-70
2021/05/15 01:15:13;;;;;;;1.57;0.90;;;;;;;;;;5118107;28;20236;-68
2021/05/15 01:17:39;;;;;;;2.47;0.90;;;;;;;;;;5118232;28;20205;-68
2021/05/15 01:20:06;;;;;;;2.63;1.07;;;;;;;;;;5118487;28;20287;-68
2021/05/15 01:22:33;;;;;;;2.43;1.10;;;;;;;;;;5118361;28;20208;-68
2021/05/15 01:24:59;;;;;;;2.37;1.10;;;;;;;;;;5118129;28;20273;-68
2021/05/15 01:27:25;;;;;;;1.47;1.00;;;;;;;;;;5117669;28;20258;-69
2021/05/15 01:29:52;;;;;;;2.73;1.00;;;;;;;;;;5118388;28;20197;-69
2021/05/15 01:32:18;;;;;;;3.40;1.30;;;;;;;;;;5118170;28;20287;-69
2021/05/15 01:34:44;;;;;;;1.23;1.07;;;;;;;;;;5118154;28;20616;-69
2021/05/15 01:37:11;;;;;;;0.90;0.90;;;;;;;;;;5098379;28;20240;-69
2021/05/15 01:39:38;;;;;;;3.07;0.90;;;;;;;;;;5098227;28;20201;-69
2021/05/15 01:42:04;;;;;;;3.80;1.00;;;;;;;;;;5104598;28;20212;-69
2021/05/15 01:44:31;;;;;;;1.43;1.07;;;;;;;;;;5119715;28;20283;-69
2021/05/15 01:46:57;;;;;;;2.63;1.40;;;;;;;;;;5110847;28;20254;-69
2021/05/15 01:49:23;;;;;;;3.30;1.10;;;;;;;;;;5101565;28;20604;-69
2021/05/15 01:51:49;;;;;;;2.03;0.87;;;;;;;;;;5101530;28;20197;-69
2021/05/15 01:54:16;;;;;;;0.80;0.80;;;;;;;;;;5101346;28;20568;-68
2021/05/15 01:56:43;;;;;;;1.03;1.00;;;;;;;;;;5100995;28;20222;-69
2021/05/15 01:59:09;;;;;;;1.00;1.00;;;;;;;;;;5101981;28;20202;-69
2021/05/15 02:01:35;;;;;;;1.60;0.80;;;;;;;;;;5121733;28;20563;-69
2021/05/15 02:04:02;;;;;;;1.17;1.03;;;;;;;;;;5121426;28;20204;-69
2021/05/15 02:06:29;;;;;;;2.00;0.80;;;;;;;;;;5121936;27;20197;-69
2021/05/15 02:08:55;;;;;;;2.47;1.10;;;;;;;;;;5121625;28;20201;-69
2021/05/15 02:11:21;;;;;;;1.43;1.17;;;;;;;;;;5121885;28;20223;-69
2021/05/15 02:13:49;;;;;;;1.13;1.00;;;;;;;;;;5121282;28;20287;-69
2021/05/15 02:16:16;;;;;;;1.47;1.00;;;;;;;;;;5121273;28;20232;-69
2021/05/15 02:18:42;;;;;;;1.77;0.93;;;;;;;;;;5121334;28;20288;-69
2021/05/15 02:21:09;;;;;;;1.77;1.00;;;;;;;;;;5121505;28;20283;-69
2021/05/15 02:23:35;;;;;;;1.37;0.90;;;;;;;;;;5121344;28;20201;-69
2021/05/15 02:26:01;;;;;;;0.80;0.80;;;;;;;;;;5121207;28;20216;-68
2021/05/15 02:28:28;;;;;;;2.10;1.00;;;;;;;;;;5120900;28;20656;-69
2021/05/15 02:30:55;;;;;;;3.83;0.97;;;;;;;;;;5121189;28;20743;-69
2021/05/15 02:33:21;;;;;;;1.00;0.90;;;;;;;;;;5120894;28;20625;-69
2021/05/15 02:35:48;;;;;;;2.87;1.03;;;;;;;;;;5117181;28;20221;-68
2021/05/15 02:38:15;;;;;;;1.40;0.80;;;;;;;;;;5121169;28;20288;-68
2021/05/15 02:40:42;;;;;;;2.03;1.17;;;;;;;;;;5120952;28;20205;-69
2021/05/15 02:43:08;;;;;;;1.20;1.10;;;;;;;;;;5120578;28;20645;-69
2021/05/15 02:45:35;;;;;;;3.07;1.20;;;;;;;;;;5116156;27;20386;-69
2021/05/15 02:48:02;;;;;;;1.33;0.93;;;;;;;;;;5120826;28;20204;-69
2021/05/15 02:50:29;;;;;;;2.30;1.07;;;;;;;;;;5120684;28;20709;-69
2021/05/15 02:52:55;;;;;;;1.67;0.90;;;;;;;;;;5120720;28;20724;-68
2021/05/15 02:55:23;;;;;;;3.00;1.20;;;;;;;;;;5120045;28;20316;-68
2021/05/15 02:57:50;;;;;;;1.67;0.80;;;;;;;;;;5120089;27;20196;-68
2021/05/15 03:00:17;;;;;;;1.57;0.87;;;;;;;;;;5120619;28;20246;-70
2021/05/15 03:02:43;;;;;;;3.00;1.10;;;;;;;;;;5120215;28;20258;-70
2021/05/15 03:05:12;;;;;;;3.80;1.10;;;;;;;;;;5120740;28;20685;-68
2021/05/15 03:07:38;;;;;;;2.53;0.97;;;;;;;;;;5120211;27;20208;-68
2021/05/15 03:10:05;;;;;;;1.63;1.00;;;;;;;;;;5121233;28;20250;-68
2021/05/15 03:12:31;;;;;;;0.73;0.73;;;;;;;;;;5120799;28;20201;-69
2021/05/15 03:14:58;;;;;;;1.00;1.00;;;;;;;;;;5120386;28;20274;-68
2021/05/15 03:17:24;;;;;;;1.50;1.00;;;;;;;;;;5120190;28;20204;-69
2021/05/15 03:19:52;;;;;;;2.43;0.97;;;;;;;;;;5120308;28;20242;-68
2021/05/15 03:22:20;;;;;;;3.13;1.00;;;;;;;;;;5120143;28;20680;-69
2021/05/15 03:24:46;;;;;;;1.03;0.93;;;;;;;;;;5120101;28;20221;-68
2021/05/15 03:27:12;;;;;;;1.10;1.00;;;;;;;;;;5101254;28;20202;-68
2021/05/15 03:29:38;;;;;;;2.63;1.07;;;;;;;;;;5099474;28;20197;-69
2021/05/15 03:32:05;;;;;;;2.27;0.97;;;;;;;;;;5099234;28;20208;-68
2021/05/15 03:34:31;;;;;;;1.50;1.00;;;;;;;;;;5103241;28;20572;-68
2021/05/15 03:36:57;;;;;;;1.70;0.90;;;;;;;;;;5100767;28;20201;-68
2021/05/15 03:39:24;;;;;;;2.53;1.00;;;;;;;;;;5099363;28;20205;-68
2021/05/15 03:41:51;;;;;;;3.07;1.20;;;;;;;;;;5099545;28;20692;-69
2021/05/15 03:44:17;;;;;;;0.80;0.80;;;;;;;;;;5098945;28;20226;-68
2021/05/15 03:46:43;;;;;;;1.20;1.10;;;;;;;;;;5106841;28;20194;-68
2021/05/15 03:49:09;;;;;;;1.40;0.77;;;;;;;;;;5099437;28;20225;-68
2021/05/15 03:51:36;;;;;;;1.47;0.80;;;;;;;;;;5099611;28;20258;-68
2021/05/15 03:54:03;;;;;;;2.03;1.10;;;;;;;;;;5099181;28;20576;-68
2021/05/15 03:56:30;;;;;;;2.37;0.90;;;;;;;;;;5098854;28;20229;-68
2021/05/15 03:58:56;;;;;;;3.13;0.90;;;;;;;;;;5098901;28;20244;-69
2021/05/15 04:01:22;;;;;;;1.23;0.90;;;;;;;;;;5118344;28;20208;-68
2021/05/15 04:03:49;;;;;;;1.67;0.80;;;;;;;;;;5119187;28;20215;-68
2021/05/15 04:06:15;;;;;;;2.13;1.00;;;;;;;;;;5118406;28;20244;-69
2021/05/15 04:08:41;;;;;;;2.97;1.00;;;;;;;;;;5119512;28;20268;-69
2021/05/15 04:11:08;;;;;;;1.83;1.00;;;;;;;;;;5119201;28;20212;-69
2021/05/15 04:13:42;;;;;;;1.63;1.10;;;;;;;;;;5118959;27;20209;-69
2021/05/15 04:16:13;;;;;;;2.23;1.43;;;;;;;;;;5119259;28;20676;-69
2021/05/15 04:18:39;;;;;;;2.60;1.13;;;;;;;;;;5119225;28;20296;-69
2021/05/15 04:21:05;;;;;;;1.40;1.10;;;;;;;;;;5118865;28;20201;-69
2021/05/15 04:23:32;;;;;;;1.60;0.90;;;;;;;;;;5119045;28;20200;-69
2021/05/15 04:25:59;;;;;;;1.57;0.87;;;;;;;;;;5118717;28;20217;-69
2021/05/15 04:28:25;;;;;;;1.50;1.00;;;;;;;;;;5118467;28;20201;-69
2021/05/15 04:30:52;;;;;;;1.67;0.90;;;;;;;;;;5119011;28;20213;-69
2021/05/15 04:33:22;;;;;;;1.73;0.97;;;;;;;;;;5107728;28;20222;-69
2021/05/15 04:35:49;;;;;;;2.20;0.90;;;;;;;;;;5105928;28;20228;-69
2021/05/15 04:38:16;;;;;;;2.33;1.00;;;;;;;;;;5106421;28;20724;-68
2021/05/15 04:40:42;;;;;;;1.30;0.73;;;;;;;;;;5106518;28;20196;-68
2021/05/15 04:43:09;;;;;;;1.80;1.20;;;;;;;;;;5105978;28;20208;-69
2021/05/15 04:45:35;;;;;;;2.73;1.17;;;;;;;;;;5106017;28;20229;-68
2021/05/15 04:48:02;;;;;;;3.60;1.23;;;;;;;;;;5106048;28;20193;-67
2021/05/15 04:50:28;;;;;;;1.50;1.20;;;;;;;;;;5105152;28;20236;-67
2021/05/15 04:52:55;;;;;;;5.57;1.10;;;;;;;;;;5104455;28;20201;-68
2021/05/15 04:55:21;;;;;;;2.50;1.20;;;;;;;;;;5106627;28;20253;-68
2021/05/15 04:57:47;;;;;;;2.40;1.23;;;;;;;;;;5105385;28;20280;-68
2021/05/15 05:00:14;;;;;;;1.00;0.90;;;;;;;;;;5108175;28;20200;-67
2021/05/15 05:02:40;;;;;;;1.73;1.10;;;;;;;;;;5105726;28;20202;-67
2021/05/15 05:05:08;;;;;;;2.30;1.33;;;;;;;;;;5106095;28;20300;-66
2021/05/15 05:07:35;;;;;;;1.53;1.43;;;;;;;;;;5106024;28;20208;-66
2021/05/15 05:10:01;;;;;;;4.43;1.40;;;;;;;;;;5100885;28;20239;-66
2021/05/15 05:12:27;;;;;;;3.47;1.33;;;;;;;;;;5103586;28;20208;-67
2021/05/15 05:14:54;;;;;;;1.93;1.30;;;;;;;;;;5106371;28;20271;-66
2021/05/15 05:17:20;;;;;;;1.47;1.10;;;;;;;;;;5098753;28;20231;-67
2021/05/15 05:19:46;;;;;;;2.97;1.27;;;;;;;;;;5102416;28;20297;-66
2021/05/15 05:22:13;;;;;;;3.07;1.23;;;;;;;;;;5102557;28;20208;-67
2021/05/15 05:24:40;;;;;;;4.27;1.60;;;;;;;;;;5102387;28;20251;-66
2021/05/15 05:27:08;;;;;;;1.40;1.30;;;;;;;;;;5101709;28;20205;-64
2021/05/15 05:29:35;;;;;;;3.17;1.63;;;;;;;;;;5107306;28;20572;-67
2021/05/15 05:32:01;;;;;;;4.73;1.50;;;;;;;;;;5109315;28;20247;-65
2021/05/15 05:34:28;;;;;;;2.10;1.37;;;;;;;;;;5112913;28;20220;-67
2021/05/15 05:36:54;;;;;;;1.90;1.40;;;;;;;;;;5107564;28;20213;-67
2021/05/15 05:39:21;;;;;;;6.73;1.80;;;;;;;;;;5110562;28;20660;-67
2021/05/15 05:41:48;;;;;;;3.33;1.50;;;;;;;;;;5107824;28;20296;-66
2021/05/15 05:44:14;;;;;;;3.60;1.70;;;;;;;;;;5108347;28;20700;-68
2021/05/15 05:46:40;;;;;;;3.23;1.70;;;;;;;;;;5104839;28;20198;-67
2021/05/15 05:49:07;;;;;;;1.90;1.47;;;;;;;;;;5106972;28;20230;-66
2021/05/15 05:51:33;;;;;;;3.00;1.60;;;;;;;;;;5108719;28;20637;-66
2021/05/15 05:53:59;;;;;;;3.67;1.43;;;;;;;;;;5101279;28;20329;-66
2021/05/15 05:56:27;;;;;;;1.67;1.17;;;;;;;;;;5101383;28;20249;-66
2021/05/15 05:58:53;;;;;;;3.30;1.67;;;;;;;;;;5101036;28;20201;-66
2021/05/15 06:01:19;;;;;;;1.27;1.10;;;;;;;;;;5120156;28;20228;-66
2021/05/15 06:03:45;;;;;;;2.20;1.30;;;;;;;;;;5122061;28;20221;-67
2021/05/15 06:06:12;;;;;;;2.13;1.27;;;;;;;;;;5121748;28;20224;-67
2021/05/15 06:08:38;;;;;;;3.73;1.00;;;;;;;;;;5121649;28;20619;-67
2021/05/15 06:11:06;;;;;;;1.70;1.07;;;;;;;;;;5121528;28;20230;-67
2021/05/15 06:13:33;;;;;;;3.07;1.27;;;;;;;;;;5121197;28;20204;-67
2021/05/15 06:16:00;;;;;;;3.67;1.00;;;;;;;;;;5121303;28;20224;-67
2021/05/15 06:18:26;;;;;;;1.37;1.07;;;;;;;;;;5121513;28;20204;-66
2021/05/15 06:20:53;;;;;;;3.63;1.20;;;;;;;;;;5121428;28;20220;-67
2021/05/15 06:23:19;;;;;;;0.97;0.90;;;;;;;;;;5121434;28;20292;-66
2021/05/15 06:25:45;;;;;;;1.60;0.93;;;;;;;;;;5121307;28;20288;-66
2021/05/15 06:28:12;;;;;;;3.13;1.13;;;;;;;;;;5121521;28;20660;-67
2021/05/15 06:30:39;;;;;;;1.50;0.90;;;;;;;;;;5120918;28;20201;-66
2021/05/15 06:33:06;;;;;;;1.90;1.20;;;;;;;;;;5120960;28;20204;-67
2021/05/15 06:35:33;;;;;;;2.10;1.17;;;;;;;;;;5113679;28;20719;-67
2021/05/15 06:37:59;;;;;;;3.77;1.40;;;;;;;;;;5100405;28;20202;-67
2021/05/15 06:40:26;;;;;;;1.53;1.43;;;;;;;;;;5100705;28;20205;-66
2021/05/15 06:42:52;;;;;;;2.63;1.60;;;;;;;;;;5100230;28;20201;-68
2021/05/15 06:45:18;;;;;;;2.70;1.40;;;;;;;;;;5101141;28;20237;-66
2021/05/15 06:47:46;;;;;;;1.50;1.30;;;;;;;;;;5105643;28;20209;-67
2021/05/15 06:50:12;;;;;;;3.53;1.70;;;;;;;;;;5100651;28;20237;-67
2021/05/15 06:52:39;;;;;;;1.73;1.40;;;;;;;;;;5100160;28;20206;-68
2021/05/15 06:55:06;;;;;;;3.87;1.43;;;;;;;;;;5100323;28;20228;-67
2021/05/15 06:57:32;;;;;;;1.57;1.30;;;;;;;;;;5100168;28;20240;-67
2021/05/15 06:59:58;;;;;;;2.13;1.70;;;;;;;;;;5108900;28;20200;-67
2021/05/15 07:02:25;;;;;;;1.60;1.40;;;;;;;;;;5121837;28;20284;-67
2021/05/15 07:04:52;;;;;;;2.43;1.57;;;;;;;;;;5120811;28;20228;-66
2021/05/15 07:07:20;;;;;;;1.70;1.13;;;;;;;;;;5120509;28;20257;-67
2021/05/15 07:09:48;;;;;;;1.77;1.30;;;;;;;;;;5120573;28;20224;-67
2021/05/15 07:12:14;;;;;;;2.63;1.63;;;;;;;;;;5119984;28;20209;-67
2021/05/15 07:14:41;;;;;;;2.90;1.40;;;;;;;;;;5120374;28;20300;-67
2021/05/15 07:17:07;;;;;;;1.43;1.33;;;;;;;;;;5120119;28;20552;-67
2021/05/15 07:19:33;;;;;;;3.80;1.30;;;;;;;;;;5120410;28;20669;-67
2021/05/15 07:22:00;;;;;;;1.23;1.10;;;;;;;;;;5120214;28;20287;-67
2021/05/15 07:24:27;;;;;;;1.07;1.00;;;;;;;;;;5120327;28;20288;-67
2021/05/15 07:26:53;;;;;;;1.70;1.20;;;;;;;;;;5119698;28;20296;-67
2021/05/15 07:29:19;;;;;;;1.10;1.10;;;;;;;;;;5119831;28;20205;-67
2021/05/15 07:31:45;;;;;;;2.03;1.37;;;;;;;;;;5119958;28;20243;-67
2021/05/15 07:34:12;;;;;;;2.10;1.00;;;;;;;;;;5119877;28;20211;-67
2021/05/15 07:36:38;;;;;;;1.63;1.20;;;;;;;;;;5103283;28;20897;-67
2021/05/15 07:39:06;;;;;;;1.00;1.00;;;;;;;;;;5099485;28;20733;-67
2021/05/15 07:41:32;;;;;;;1.37;1.10;;;;;;;;;;5099353;28;21118;-66
2021/05/15 07:43:58;;;;;;;2.23;1.00;;;;;;;;;;5099163;28;20613;-65
2021/05/15 07:46:24;;;;;;;1.80;1.00;;;;;;;;;;5106258;28;20748;-66
2021/05/15 07:48:50;;;;;;;1.80;1.20;;;;;;;;;;5098885;28;20726;-66
2021/05/15 07:51:20;;;;;;;1.83;1.00;;;;;;;;;;5099196;28;20748;-67
2021/05/15 07:53:46;;;;;;;0.87;0.87;;;;;;;;;;5107613;28;20208;-65
2021/05/15 07:56:14;;;;;;;2.67;0.80;;;;;;;;;;5106908;28;20221;-65
2021/05/15 07:58:40;;;;;;;1.33;0.90;;;;;;;;;;5106644;28;20193;-67
2021/05/15 08:01:06;;;;;;;1.10;0.93;;;;;;;;;;5106713;28;20201;-66
2021/05/15 08:03:32;;;;;;;2.13;0.90;;;;;;;;;;5106658;28;20205;-67
2021/05/15 08:05:59;;;;;;;3.57;0.70;;;;;;;;;;5106651;28;20218;-73
2021/05/15 08:08:25;;;;;;;1.63;0.90;;;;;;;;;;5107212;28;20193;-65
2021/05/15 08:10:52;;;;;;;1.17;0.80;;;;;;;;;;5106380;28;20566;-65
2021/05/15 08:13:19;;;;;;;3.13;0.93;;;;;;;;;;5106387;28;20289;-65
2021/05/15 08:15:45;;;;;;;1.33;0.83;;;;;;;;;;5106277;28;20294;-65
2021/05/15 08:18:11;;;;;;;1.57;0.80;;;;;;;;;;5115974;28;20204;-67
2021/05/15 08:20:38;;;;;;;1.77;0.80;;;;;;;;;;5118952;28;20196;-66
2021/05/15 08:23:04;;;;;;;1.53;0.90;;;;;;;;;;5119251;28;20204;-67
2021/05/15 08:25:30;;;;;;;1.47;0.80;;;;;;;;;;5118821;28;20280;-67
2021/05/15 08:27:59;;;;;;;2.13;1.00;;;;;;;;;;5118530;28;20200;-66
2021/05/15 08:30:28;;;;;;;0.90;0.90;;;;;;;;;;5118586;28;20208;-68
2021/05/15 08:32:55;;;;;;;4.73;1.07;;;;;;;;;;5118599;28;20207;-68
2021/05/15 08:35:22;;;;;;;3.57;0.97;;;;;;;;;;5113505;28;20313;-68
2021/05/15 08:37:48;;;;;;;5.40;0.90;;;;;;;;;;5100999;28;20811;-66
2021/05/15 08:40:15;;;;;;;1.97;1.00;;;;;;;;;;5106018;28;20193;-69
2021/05/15 08:42:42;;;;;;;3.30;0.90;;;;;;;;;;5106044;28;20205;-69
2021/05/15 08:45:10;;;;;;;1.13;0.90;;;;;;;;;;5107486;28;20229;-67
2021/05/15 08:47:38;;;;;;;1.33;0.80;;;;;;;;;;5104802;28;20202;-69
2021/05/15 08:50:07;;;;;;;0.80;0.80;;;;;;;;;;5104502;28;20198;-69
2021/05/15 08:52:34;;;;;;;0.70;0.70;;;;;;;;;;5105670;28;20229;-69
2021/05/15 08:55:01;;;;;;;1.03;0.67;;;;;;;;;;5107001;28;20224;-69
2021/05/15 08:57:27;;;;;;;0.93;0.60;;;;;;;;;;5106592;28;20232;-69
2021/05/15 08:59:53;;;;;;;1.27;0.97;;;;;;;;;;5112677;28;20282;-70
2021/05/15 09:02:20;;;;;;;1.37;0.70;;;;;;;;;;5118309;28;20228;-69
2021/05/15 09:05:08;;;;;;;1.53;0.70;;;;;;;;;;5116949;28;20231;-70
2021/05/15 09:07:35;;;;;;;3.43;0.90;;;;;;;;;;5118055;28;20208;-70
2021/05/15 09:10:04;;;;;;;2.37;0.80;;;;;;;;;;5117883;28;20755;-70
2021/05/15 09:12:32;;;;;;;1.80;0.60;;;;;;;;;;5117530;28;20240;-70
2021/05/15 09:15:01;;;;;;;2.13;0.60;;;;;;;;;;5118041;28;20649;-70
2021/05/15 09:17:29;;;;;;;1.80;0.90;;;;;;;;;;5118386;28;20235;-70
2021/05/15 09:19:57;;;;;;;6.70;1.10;;;;;;;;;;5118477;28;20287;-70
2021/05/15 09:22:28;;;;;;;4.47;0.90;;;;;;;;;;5118459;28;20237;-70
2021/05/15 09:25:02;;;;;;;0.77;0.60;;;;;;;;;;5118306;28;20312;-70
2021/05/15 09:27:32;;;;;;;1.83;1.10;;;;;;;;;;5117819;28;20230;-68
2021/05/15 09:30:00;;;;;;;1.77;0.97;;;;;;;;;;5118292;28;20209;-68
2021/05/15 09:32:31;;;;;;;1.57;0.80;;;;;;;;;;5117250;28;20664;-70
2021/05/15 09:34:59;;;;;;;4.13;0.90;;;;;;;;;;5117060;28;20302;-68
2021/05/15 09:37:28;;;;;;;0.97;0.80;;;;;;;;;;5097699;28;20289;-69
2021/05/15 09:39:55;;;;;;;1.73;0.90;;;;;;;;;;5097815;28;20205;-70
2021/05/15 09:42:23;;;;;;;1.10;0.77;;;;;;;;;;5097335;28;20237;-69
2021/05/15 09:44:50;;;;;;;1.00;0.80;;;;;;;;;;5097259;28;20324;-70
2021/05/15 09:47:18;;;;;;;3.53;1.20;;;;;;;;;;5106884;28;20282;-69
2021/05/15 09:49:49;;;;;;;2.33;0.83;;;;;;;;;;5097329;28;20288;-70
2021/05/15 09:52:16;;;;;;;2.53;1.13;;;;;;;;;;5098832;28;20198;-71
2021/05/15 09:54:45;;;;;;;1.77;0.90;;;;;;;;;;5109607;28;20245;-69
2021/05/15 09:57:13;;;;;;;2.00;0.80;;;;;;;;;;5105736;28;20703;-66
2021/05/15 09:59:42;;;;;;;2.50;0.97;;;;;;;;;;5105211;28;20197;-68
2021/05/15 10:02:10;;;;;;;4.97;1.10;;;;;;;;;;5101338;28;20217;-71
2021/05/15 10:04:39;;;;;;;3.30;1.10;;;;;;;;;;5107472;28;20260;-70
2021/05/15 10:07:14;;;;;;;1.50;0.60;;;;;;;;;;5109472;28;20208;-71
2021/05/15 10:09:41;;;;;;;6.23;0.97;;;;;;;;;;5100031;28;21652;-68
2021/05/15 10:12:10;;;;;;;1.60;0.87;;;;;;;;;;5109418;28;20193;-69
2021/05/15 10:14:38;;;;;;;0.93;0.70;;;;;;;;;;5100021;28;20633;-70
2021/05/15 10:17:05;;;;;;;2.80;0.80;;;;;;;;;;5103961;28;20702;-68
2021/05/15 10:19:33;;;;;;;3.80;2.00;;;;;;;;;;5107828;28;20201;-70
2021/05/15 10:22:00;;;;;;;0.77;0.77;;;;;;;;;;5107064;28;20288;-70
2021/05/15 10:24:29;;;;;;;1.73;0.90;;;;;;;;;;5106062;28;20712;-70
2021/05/15 10:26:58;;;;;;;4.20;1.13;;;;;;;;;;5108714;28;20265;-69
2021/05/15 10:29:39;;;;;;;0.67;0.67;;;;;;;;;;5110102;28;20213;-67
2021/05/15 10:32:09;;;;;;;1.90;0.87;;;;;;;;;;5107023;28;20667;-71
2021/05/15 10:34:36;;;;;;;2.07;1.03;;;;;;;;;;5106146;28;20603;-70
2021/05/15 10:37:14;;;;;;;2.47;1.10;;;;;;;;;;5107532;28;20249;-69
2021/05/15 10:39:42;;;;;;;1.87;1.27;;;;;;;;;;5107558;28;20724;-69
2021/05/15 10:42:12;;;;;;;2.33;1.10;;;;;;;;;;5104624;28;20193;-67
2021/05/15 10:44:41;;;;;;;2.33;1.10;;;;;;;;;;5108698;28;20232;-68
2021/05/15 10:47:08;;;;;;;3.03;1.07;;;;;;;;;;5108309;28;20227;-68
2021/05/15 10:49:36;;;;;;;2.27;1.17;;;;;;;;;;5098555;28;20193;-69
2021/05/15 10:52:10;;;;;;;2.30;1.00;;;;;;;;;;5099929;28;20198;-71
2021/05/15 10:54:39;;;;;;;0.90;0.90;;;;;;;;;;5099926;28;20252;-68
2021/05/15 10:57:07;;;;;;;3.63;1.20;;;;;;;;;;5099613;28;20261;-68
2021/05/15 10:59:35;;;;;;;1.57;1.10;;;;;;;;;;5101396;28;20210;-68
2021/05/15 11:02:07;;;;;;;2.20;1.20;;;;;;;;;;5110420;28;20207;-68
2021/05/15 11:04:35;;;;;;;2.43;1.00;;;;;;;;;;5099102;28;20312;-68
2021/05/15 11:07:09;;;;;;;1.90;1.20;;;;;;;;;;5099420;28;20239;-68
2021/05/15 11:09:59;;;;;;;3.47;1.13;;;;;;;;;;5108016;28;20678;-67
2021/05/15 11:12:29;;;;;;;2.83;1.20;;;;;;;;;;5104875;28;20194;-69
2021/05/15 11:15:00;;;;;;;2.43;1.30;;;;;;;;;;5099230;28;20217;-69
2021/05/15 11:17:28;;;;;;;2.43;1.33;;;;;;;;;;5099359;28;20225;-69
2021/05/15 11:19:57;;;;;;;1.13;1.03;;;;;;;;;;5099512;28;20664;-69
2021/05/15 11:22:35;;;;;;;2.60;1.00;;;;;;;;;;5099815;28;20216;-66
2021/05/15 11:25:04;;;;;;;2.83;0.97;;;;;;;;;;5097555;28;20252;-66
2021/05/15 11:27:32;;;;;;;2.10;0.90;;;;;;;;;;5104056;28;20598;-67
2021/05/15 11:30:07;;;;;;;4.87;1.20;;;;;;;;;;5107556;28;20288;-67
2021/05/15 11:32:36;;;;;;;2.60;1.30;;;;;;;;;;5109979;28;20225;-67
2021/05/15 11:35:06;;;;;;;2.47;1.33;;;;;;;;;;5114253;28;20379;-68
2021/05/15 11:37:33;;;;;;;2.30;1.07;;;;;;;;;;5099842;28;20261;-68
2021/05/15 11:40:01;;;;;;;2.67;1.17;;;;;;;;;;5109745;28;20205;-66
2021/05/15 11:42:29;;;;;;;2.50;1.23;;;;;;;;;;5109193;28;20291;-68
2021/05/15 11:44:57;;;;;;;3.60;1.30;;;;;;;;;;5116774;28;20240;-67
2021/05/15 11:47:25;;;;;;;2.10;1.07;;;;;;;;;;5107081;28;20213;-68
2021/05/15 11:49:57;;;;;;;1.73;1.27;;;;;;;;;;5099190;28;20241;-69
2021/05/15 11:52:29;;;;;;;1.10;1.00;;;;;;;;;;5099264;28;20293;-69
2021/05/15 11:54:56;;;;;;;1.30;1.03;;;;;;;;;;5098737;28;20312;-69
2021/05/15 11:57:27;;;;;;;3.80;1.20;;;;;;;;;;5098400;28;20658;-70
2021/05/15 12:00:06;;;;;;;1.57;1.00;;;;;;;;;;5106024;28;20687;-71
2021/05/15 12:02:34;;;;;;;4.03;1.43;;;;;;;;;;5119167;28;20586;-71
2021/05/15 12:05:13;;;;;;;3.07;1.00;;;;;;;;;;5101389;28;20328;-73
2021/05/15 12:07:44;;;;;;;1.10;1.00;;;;;;;;;;5100332;28;20311;-74
2021/05/15 12:10:13;;;;;;;2.00;1.00;;;;;;;;;;5098867;28;20247;-69
2021/05/15 12:12:42;;;;;;;2.00;1.17;;;;;;;;;;5098020;28;20247;-71
2021/05/15 12:15:10;;;;;;;5.63;1.53;;;;;;;;;;5098560;28;20312;-71
2021/05/15 12:17:39;;;;;;;1.20;0.90;;;;;;;;;;5098306;28;20693;-70
2021/05/15 12:20:09;;;;;;;2.53;1.07;;;;;;;;;;5098746;28;20296;-71
2021/05/15 12:22:37;;;;;;;2.20;1.20;;;;;;;;;;5105233;28;20227;-70
2021/05/15 12:25:08;;;;;;;1.90;0.90;;;;;;;;;;5118609;28;20303;-66
2021/05/15 12:27:36;;;;;;;3.00;1.13;;;;;;;;;;5117436;28;20232;-65
2021/05/15 12:30:05;;;;;;;1.73;1.20;;;;;;;;;;5118851;28;20218;-65
2021/05/15 12:32:34;;;;;;;2.70;1.20;;;;;;;;;;5118499;28;20236;-71
2021/05/15 12:35:01;;;;;;;1.60;1.07;;;;;;;;;;5107702;28;20994;-66
2021/05/15 12:37:34;;;;;;;4.37;1.37;;;;;;;;;;5106419;28;20303;-66
2021/05/15 12:40:03;;;;;;;5.73;1.20;;;;;;;;;;5101249;28;20240;-65
2021/05/15 12:42:31;;;;;;;7.87;1.40;;;;;;;;;;5098245;28;20205;-65
2021/05/15 12:45:07;;;;;;;2.97;1.40;;;;;;;;;;5097915;28;20306;-65
2021/05/15 12:47:35;;;;;;;2.03;1.00;;;;;;;;;;5105994;28;20204;-64
2021/05/15 12:50:14;;;;;;;1.40;1.20;;;;;;;;;;5097936;28;20235;-65
2021/05/15 12:52:45;;;;;;;3.87;1.10;;;;;;;;;;5098124;28;20264;-67
2021/05/15 12:55:18;;;;;;;4.20;1.23;;;;;;;;;;5098189;28;20289;-67
2021/05/15 12:57:52;;;;;;;2.10;1.07;;;;;;;;;;5097536;28;20244;-67
2021/05/15 13:00:20;;;;;;;2.13;1.27;;;;;;;;;;5105718;28;20724;-66
2021/05/15 13:02:57;;;;;;;2.87;1.10;;;;;;;;;;5102797;28;20198;-67
2021/05/15 13:05:33;;;;;;;2.23;1.30;;;;;;;;;;5105788;28;20217;-67
2021/05/15 13:08:09;;;;;;;3.13;1.40;;;;;;;;;;5107196;28;20751;-67
2021/05/15 13:10:37;;;;;;;3.20;1.20;;;;;;;;;;5118334;28;20236;-69
2021/05/15 13:13:05;;;;;;;2.37;1.17;;;;;;;;;;5116887;28;20212;-69
2021/05/15 13:15:33;;;;;;;6.10;1.13;;;;;;;;;;5118135;28;20267;-69
2021/05/15 13:18:01;;;;;;;3.80;1.70;;;;;;;;;;5117916;28;20311;-69
2021/05/15 13:20:28;;;;;;;3.40;1.20;;;;;;;;;;5114683;28;20240;-69
2021/05/15 13:22:57;;;;;;;1.27;1.10;;;;;;;;;;5097686;28;20237;-69
2021/05/15 13:25:26;;;;;;;2.13;1.30;;;;;;;;;;5097667;28;20562;-69
2021/05/15 13:27:53;;;;;;;2.70;1.27;;;;;;;;;;5098094;28;20194;-68
2021/05/15 13:30:21;;;;;;;1.70;1.37;;;;;;;;;;5106349;28;20215;-68
2021/05/15 13:32:48;;;;;;;2.93;0.93;;;;;;;;;;5097382;28;20284;-70
2021/05/15 13:35:16;;;;;;;2.67;1.00;;;;;;;;;;5114732;28;20277;-68
2021/05/15 13:37:43;;;;;;;4.70;1.00;;;;;;;;;;5107174;28;20229;-70
2021/05/15 13:40:12;;;;;;;4.07;1.77;;;;;;;;;;5115571;28;20236;-70
2021/05/15 13:42:40;;;;;;;3.33;1.33;;;;;;;;;;5101205;28;20304;-69
2021/05/15 13:45:08;;;;;;;3.63;1.50;;;;;;;;;;5101304;28;20320;-69
2021/05/15 13:47:36;;;;;;;2.60;1.67;;;;;;;;;;5101546;28;20280;-69
2021/05/15 13:50:03;;;;;;;12.93;6.53;;;;;;;;;;5100949;28;20277;-68
2021/05/15 13:52:31;;;;;;;2.80;1.40;;;;;;;;;;5101418;28;20212;-68
2021/05/15 13:54:58;;;;;;;3.40;1.70;;;;;;;;;;5101281;28;20229;-68
2021/05/15 13:57:26;;;;;;;3.17;1.33;;;;;;;;;;5100910;28;20225;-68
2021/05/15 13:59:54;;;;;;;2.93;1.57;;;;;;;;;;5101066;28;20284;-67
2021/05/15 14:02:22;;;;;;;1.47;1.27;;;;;;;;;;5108955;28;20208;-69
2021/05/15 14:04:49;;;;;;;4.67;1.57;;;;;;;;;;5110143;28;20308;-68
2021/05/15 14:07:17;;;;;;;1.70;1.30;;;;;;;;;;5101050;28;20284;-68
2021/05/15 14:09:44;;;;;;;1.47;1.37;;;;;;;;;;5101278;28;20285;-68
2021/05/15 14:12:12;;;;;;;1.47;1.37;;;;;;;;;;5100715;28;20293;-68
2021/05/15 14:14:39;;;;;;;1.30;1.20;;;;;;;;;;5100946;28;20731;-68
2021/05/15 14:17:09;;;;;;;2.20;1.40;;;;;;;;;;5111174;28;20304;-68
2021/05/15 14:19:36;;;;;;;2.73;1.30;;;;;;;;;;5107239;28;20211;-68
2021/05/15 14:22:03;;;;;;;1.77;1.60;;;;;;;;;;5100976;28;20193;-68
2021/05/15 14:24:31;;;;;;;6.03;2.00;;;;;;;;;;5100696;28;20225;-67
2021/05/15 14:26:58;;;;;;;2.50;1.30;;;;;;;;;;5100155;28;20296;-68
2021/05/15 14:29:27;;;;;;;3.40;1.40;;;;;;;;;;5100719;28;20212;-66
2021/05/15 14:31:55;;;;;;;6.70;1.70;;;;;;;;;;5100498;28;20288;-68
2021/05/15 14:34:23;;;;;;;1.57;1.37;;;;;;;;;;5110207;28;20264;-69
2021/05/15 14:36:51;;;;;;;2.50;1.50;;;;;;;;;;5112551;28;20289;-68
2021/05/15 14:39:19;;;;;;;2.30;1.30;;;;;;;;;;5113526;28;20280;-70
2021/05/15 14:41:47;;;;;;;2.03;1.27;;;;;;;;;;5106580;28;20284;-69
2021/05/15 14:44:15;;;;;;;3.10;1.27;;;;;;;;;;5099365;28;20787;-71
2021/05/15 14:46:43;;;;;;;2.17;1.37;;;;;;;;;;5102998;28;20296;-71